sensor_id;sensor_type;location;lat;lon;timestamp;temperature;humidity
12957;DHT22;6543;48.836;10.092;2024-02-04T00:00:16;7.00;99.90
12957;DHT22;6543;48.836;10.092;2024-02-04T00:02:44;7.00;99.90
12957;DHT22;6543;48.836;10.092;2024-02-04T00:05:10;6.90;99.90
12957;DHT22;6543;48.836;10.092;2024-02-04T00:07:37;6.90;99.90
12957;DHT22;6543;48.836;10.092;2024-02-04T00:10:06;6.90;99.90
12957;DHT22;6543;48.836;10.092;2024-02-04T00:12:33;6.90;99.90
12957;DHT22;6543;48.836;10.092;2024-02-04T00:15:00;6.80;99.90
12957;DHT22;6543;48.836;10.092;2024-02-04T00:17:26;6.80;99.90
12957;DHT22;6543;48.836;10.092;2024-02-04T00:19:55;7.30;99.90
12957;DHT22;6543;48.836;10.092;2024-02-04T00:22:22;6.80;99.90
12957;DHT22;6543;48.836;10.092;2024-02-04T00:24:49;6.80;99.90
12957;DHT22;6543;48.836;10.092;2024-02-04T00:27:17;6.80;99.90
12957;DHT22;6543;48.836;10.092;2024-02-04T00:29:44;6.70;99.90
12957;DHT22;6543;48.836;10.092;2024-02-04T00:32:11;6.60;99.90
12957;DHT22;6543;48.836;10.092;2024-02-04T00:34:37;6.60;99.90
12957;DHT22;6543;48.836;10.092;2024-02-04T00:37:04;6.60;99.90
12957;DHT22;6543;48.836;10.092;2024-02-04T00:39:31;6.60;99.90
12957;DHT22;6543;48.836;10.092;2024-02-04T00:41:58;6.50;99.90
12957;DHT22;6543;48.836;10.092;2024-02-04T00:44:26;6.50;99.90
12957;DHT22;6543;48.836;10.092;2024-02-04T00:46:53;6.50;99.90
12957;DHT22;6543;48.836;10.092;2024-02-04T00:49:19;6.50;99.90
12957;DHT22;6543;48.836;10.092;2024-02-04T00:51:46;6.40;99.90
12957;DHT22;6543;48.836;10.092;2024-02-04T00:54:13;6.40;99.90
12957;DHT22;6543;48.836;10.092;2024-02-04T00:56:40;6.50;99.90
12957;DHT22;6543;48.836;10.092;2024-02-04T00:59:06;6.50;99.90
12957;DHT22;6543;48.836;10.092;2024-02-04T01:01:35;6.40;99.90
12957;DHT22;6543;48.836;10.092;2024-02-04T01:04:01;6.50;99.90
12957;DHT22;6543;48.836;10.092;2024-02-04T01:06:28;6.40;99.90
12957;DHT22;6543;48.836;10.092;2024-02-04T01:08:55;6.40;99.90
12957;DHT22;6543;48.836;10.092;2024-02-04T01:11:22;6.40;99.90
12957;DHT22;6543;48.836;10.092;2024-02-04T01:13:49;7.00;99.90
12957;DHT22;6543;48.836;10.092;2024-02-04T01:16:16;6.40;99.90
12957;DHT22;6543;48.836;10.092;2024-02-04T01:18:44;6.30;99.90
12957;DHT22;6543;48.836;10.092;2024-02-04T01:21:11;6.30;99.90
12957;DHT22;6543;48.836;10.092;2024-02-04T01:23:38;6.30;99.90
12957;DHT22;6543;48.836;10.092;2024-02-04T01:26:05;6.30;99.90
12957;DHT22;6543;48.836;10.092;2024-02-04T01:28:31;6.40;99.90
12957;DHT22;6543;48.836;10.092;2024-02-04T01:30:58;6.40;99.90
12957;DHT22;6543;48.836;10.092;2024-02-04T01:33:25;6.40;99.90
12957;DHT22;6543;48.836;10.092;2024-02-04T01:35:53;6.40;99.90
12957;DHT22;6543;48.836;10.092;2024-02-04T01:38:20;6.40;99.90
12957;DHT22;6543;48.836;10.092;2024-02-04T01:40:46;6.50;99.90
12957;DHT22;6543;48.836;10.092;2024-02-04T01:43:14;6.50;99.90
12957;DHT22;6543;48.836;10.092;2024-02-04T01:45:41;7.90;99.90
12957;DHT22;6543;48.836;10.092;2024-02-04T01:48:08;6.50;99.90
12957;DHT22;6543;48.836;10.092;2024-02-04T01:50:35;6.50;99.90
12957;DHT22;6543;48.836;10.092;2024-02-04T01:53:03;6.70;99.90
12957;DHT22;6543;48.836;10.092;2024-02-04T01:55:30;6.60;99.90
12957;DHT22;6543;48.836;10.092;2024-02-04T01:57:57;6.60;99.90
12957;DHT22;6543;48.836;10.092;2024-02-04T02:00:24;6.70;99.90
12957;DHT22;6543;48.836;10.092;2024-02-04T02:02:52;6.70;99.90
12957;DHT22;6543;48.836;10.092;2024-02-04T02:05:19;6.70;99.90
12957;DHT22;6543;48.836;10.092;2024-02-04T02:07:46;6.70;99.90
12957;DHT22;6543;48.836;10.092;2024-02-04T02:10:18;6.80;99.90
12957;DHT22;6543;48.836;10.092;2024-02-04T02:12:48;6.90;99.90
12957;DHT22;6543;48.836;10.092;2024-02-04T02:15:21;6.80;99.90
12957;DHT22;6543;48.836;10.092;2024-02-04T02:17:52;6.80;99.90
12957;DHT22;6543;48.836;10.092;2024-02-04T02:20:24;6.80;99.90
12957;DHT22;6543;48.836;10.092;2024-02-04T02:22:57;6.80;99.90
12957;DHT22;6543;48.836;10.092;2024-02-04T02:25:31;6.90;99.90
12957;DHT22;6543;48.836;10.092;2024-02-04T02:27:57;6.90;99.90
12957;DHT22;6543;48.836;10.092;2024-02-04T02:30:23;7.70;99.90
12957;DHT22;6543;48.836;10.092;2024-02-04T02:32:50;6.90;99.90
12957;DHT22;6543;48.836;10.092;2024-02-04T02:35:17;6.90;99.90
12957;DHT22;6543;48.836;10.092;2024-02-04T02:37:49;6.90;99.90
12957;DHT22;6543;48.836;10.092;2024-02-04T02:40:22;6.90;99.90
12957;DHT22;6543;48.836;10.092;2024-02-04T02:42:52;7.00;99.90
12957;DHT22;6543;48.836;10.092;2024-02-04T02:45:21;7.00;99.90
12957;DHT22;6543;48.836;10.092;2024-02-04T02:47:49;7.00;99.90
12957;DHT22;6543;48.836;10.092;2024-02-04T02:50:16;7.00;99.90
12957;DHT22;6543;48.836;10.092;2024-02-04T02:52:43;9.10;99.90
12957;DHT22;6543;48.836;10.092;2024-02-04T02:55:10;7.00;99.90
12957;DHT22;6543;48.836;10.092;2024-02-04T02:57:36;7.00;99.90
12957;DHT22;6543;48.836;10.092;2024-02-04T03:00:06;7.00;99.90
12957;DHT22;6543;48.836;10.092;2024-02-04T03:02:33;7.00;99.90
12957;DHT22;6543;48.836;10.092;2024-02-04T03:05:00;7.00;99.90
12957;DHT22;6543;48.836;10.092;2024-02-04T03:07:27;7.00;99.90
12957;DHT22;6543;48.836;10.092;2024-02-04T03:09:54;7.00;99.90
12957;DHT22;6543;48.836;10.092;2024-02-04T03:12:21;7.00;99.90
12957;DHT22;6543;48.836;10.092;2024-02-04T03:14:48;7.00;99.90
12957;DHT22;6543;48.836;10.092;2024-02-04T03:17:16;7.00;99.90
12957;DHT22;6543;48.836;10.092;2024-02-04T03:19:46;7.00;99.90
12957;DHT22;6543;48.836;10.092;2024-02-04T03:22:13;7.00;99.90
12957;DHT22;6543;48.836;10.092;2024-02-04T03:24:40;7.30;99.90
12957;DHT22;6543;48.836;10.092;2024-02-04T03:27:07;7.00;99.90
12957;DHT22;6543;48.836;10.092;2024-02-04T03:29:33;7.00;99.90
12957;DHT22;6543;48.836;10.092;2024-02-04T03:32:01;7.00;99.90
12957;DHT22;6543;48.836;10.092;2024-02-04T03:34:29;6.90;99.90
12957;DHT22;6543;48.836;10.092;2024-02-04T03:36:56;7.10;99.90
12957;DHT22;6543;48.836;10.092;2024-02-04T03:39:23;6.90;99.90
12957;DHT22;6543;48.836;10.092;2024-02-04T03:41:49;6.90;99.90
12957;DHT22;6543;48.836;10.092;2024-02-04T03:44:16;6.90;99.90
12957;DHT22;6543;48.836;10.092;2024-02-04T03:46:43;6.90;99.90
12957;DHT22;6543;48.836;10.092;2024-02-04T03:49:10;6.80;99.90
12957;DHT22;6543;48.836;10.092;2024-02-04T03:51:38;7.00;99.90
12957;DHT22;6543;48.836;10.092;2024-02-04T03:54:05;6.90;99.90
12957;DHT22;6543;48.836;10.092;2024-02-04T03:56:32;6.90;99.90
12957;DHT22;6543;48.836;10.092;2024-02-04T03:58:59;7.00;99.90
12957;DHT22;6543;48.836;10.092;2024-02-04T04:01:25;7.30;99.90
12957;DHT22;6543;48.836;10.092;2024-02-04T04:03:52;6.90;99.90
12957;DHT22;6543;48.836;10.092;2024-02-04T04:06:19;6.90;99.90
12957;DHT22;6543;48.836;10.092;2024-02-04T04:08:47;6.80;99.90
12957;DHT22;6543;48.836;10.092;2024-02-04T04:11:14;6.80;99.90
12957;DHT22;6543;48.836;10.092;2024-02-04T04:13:40;7.20;99.90
12957;DHT22;6543;48.836;10.092;2024-02-04T04:16:07;6.90;99.90
12957;DHT22;6543;48.836;10.092;2024-02-04T04:18:34;6.90;99.90
12957;DHT22;6543;48.836;10.092;2024-02-04T04:21:01;7.40;99.90
12957;DHT22;6543;48.836;10.092;2024-02-04T04:23:28;6.90;99.90
12957;DHT22;6543;48.836;10.092;2024-02-04T04:25:56;6.70;99.90
12957;DHT22;6543;48.836;10.092;2024-02-04T04:28:23;6.80;99.90
12957;DHT22;6543;48.836;10.092;2024-02-04T04:30:49;6.80;99.90
12957;DHT22;6543;48.836;10.092;2024-02-04T04:33:16;6.80;99.90
12957;DHT22;6543;48.836;10.092;2024-02-04T04:35:43;6.80;99.90
12957;DHT22;6543;48.836;10.092;2024-02-04T04:38:10;6.90;99.90
12957;DHT22;6543;48.836;10.092;2024-02-04T04:40:36;7.20;99.90
12957;DHT22;6543;48.836;10.092;2024-02-04T04:43:05;6.80;99.90
12957;DHT22;6543;48.836;10.092;2024-02-04T04:45:32;6.90;99.90
12957;DHT22;6543;48.836;10.092;2024-02-04T04:47:58;6.90;99.90
12957;DHT22;6543;48.836;10.092;2024-02-04T04:50:25;6.90;99.90
12957;DHT22;6543;48.836;10.092;2024-02-04T04:52:52;6.80;99.90
12957;DHT22;6543;48.836;10.092;2024-02-04T04:55:19;6.80;99.90
12957;DHT22;6543;48.836;10.092;2024-02-04T04:57:46;6.90;99.90
12957;DHT22;6543;48.836;10.092;2024-02-04T05:00:15;6.90;99.90
12957;DHT22;6543;48.836;10.092;2024-02-04T05:02:42;6.90;99.90
12957;DHT22;6543;48.836;10.092;2024-02-04T05:05:10;7.00;99.90
12957;DHT22;6543;48.836;10.092;2024-02-04T05:07:37;6.90;99.90
12957;DHT22;6543;48.836;10.092;2024-02-04T05:10:04;6.90;99.90
12957;DHT22;6543;48.836;10.092;2024-02-04T05:12:32;6.90;99.90
12957;DHT22;6543;48.836;10.092;2024-02-04T05:14:59;6.90;99.90
12957;DHT22;6543;48.836;10.092;2024-02-04T05:17:27;7.00;99.90
12957;DHT22;6543;48.836;10.092;2024-02-04T05:19:54;6.90;99.90
12957;DHT22;6543;48.836;10.092;2024-02-04T05:22:21;6.90;99.90
12957;DHT22;6543;48.836;10.092;2024-02-04T05:24:47;6.90;99.90
12957;DHT22;6543;48.836;10.092;2024-02-04T05:27:14;6.90;99.90
12957;DHT22;6543;48.836;10.092;2024-02-04T05:29:41;7.00;99.90
12957;DHT22;6543;48.836;10.092;2024-02-04T05:32:08;7.00;99.90
12957;DHT22;6543;48.836;10.092;2024-02-04T05:34:37;7.00;99.90
12957;DHT22;6543;48.836;10.092;2024-02-04T05:37:03;6.90;99.90
12957;DHT22;6543;48.836;10.092;2024-02-04T05:39:30;6.90;99.90
12957;DHT22;6543;48.836;10.092;2024-02-04T05:41:57;6.90;99.90
12957;DHT22;6543;48.836;10.092;2024-02-04T05:44:24;6.90;99.90
12957;DHT22;6543;48.836;10.092;2024-02-04T05:46:50;6.90;99.90
12957;DHT22;6543;48.836;10.092;2024-02-04T05:49:17;6.90;99.90
12957;DHT22;6543;48.836;10.092;2024-02-04T05:51:45;6.90;99.90
12957;DHT22;6543;48.836;10.092;2024-02-04T05:54:13;6.90;99.90
12957;DHT22;6543;48.836;10.092;2024-02-04T05:56:39;6.80;99.90
12957;DHT22;6543;48.836;10.092;2024-02-04T05:59:06;6.80;99.90
12957;DHT22;6543;48.836;10.092;2024-02-04T06:01:33;6.80;99.90
12957;DHT22;6543;48.836;10.092;2024-02-04T06:03:59;6.80;99.90
12957;DHT22;6543;48.836;10.092;2024-02-04T06:06:26;6.80;99.90
12957;DHT22;6543;48.836;10.092;2024-02-04T06:08:54;7.60;99.90
12957;DHT22;6543;48.836;10.092;2024-02-04T06:11:21;6.70;99.90
12957;DHT22;6543;48.836;10.092;2024-02-04T06:13:48;6.80;99.90
12957;DHT22;6543;48.836;10.092;2024-02-04T06:16:15;6.70;99.90
12957;DHT22;6543;48.836;10.092;2024-02-04T06:18:42;6.70;99.90
12957;DHT22;6543;48.836;10.092;2024-02-04T06:21:09;6.70;99.90
12957;DHT22;6543;48.836;10.092;2024-02-04T06:23:38;6.60;99.90
12957;DHT22;6543;48.836;10.092;2024-02-04T06:26:06;6.60;99.90
12957;DHT22;6543;48.836;10.092;2024-02-04T06:28:33;6.60;99.90
12957;DHT22;6543;48.836;10.092;2024-02-04T06:31:00;6.70;99.90
12957;DHT22;6543;48.836;10.092;2024-02-04T06:33:27;6.70;99.90
12957;DHT22;6543;48.836;10.092;2024-02-04T06:35:53;6.60;99.90
12957;DHT22;6543;48.836;10.092;2024-02-04T06:38:21;6.60;99.90
12957;DHT22;6543;48.836;10.092;2024-02-04T06:40:48;6.60;99.90
12957;DHT22;6543;48.836;10.092;2024-02-04T06:43:16;6.70;99.90
12957;DHT22;6543;48.836;10.092;2024-02-04T06:45:43;6.70;99.90
12957;DHT22;6543;48.836;10.092;2024-02-04T06:48:09;6.80;99.90
12957;DHT22;6543;48.836;10.092;2024-02-04T06:50:37;6.80;99.90
12957;DHT22;6543;48.836;10.092;2024-02-04T06:53:03;6.80;99.90
12957;DHT22;6543;48.836;10.092;2024-02-04T06:55:30;6.80;99.90
12957;DHT22;6543;48.836;10.092;2024-02-04T06:57:57;6.80;99.90
12957;DHT22;6543;48.836;10.092;2024-02-04T07:00:25;6.90;99.90
12957;DHT22;6543;48.836;10.092;2024-02-04T07:02:52;6.90;99.90
12957;DHT22;6543;48.836;10.092;2024-02-04T07:05:19;7.20;99.90
12957;DHT22;6543;48.836;10.092;2024-02-04T07:07:47;6.90;99.90
12957;DHT22;6543;48.836;10.092;2024-02-04T07:10:14;6.90;99.90
12957;DHT22;6543;48.836;10.092;2024-02-04T07:12:41;6.90;99.90
12957;DHT22;6543;48.836;10.092;2024-02-04T07:15:08;6.90;99.90
12957;DHT22;6543;48.836;10.092;2024-02-04T07:17:36;6.90;99.90
12957;DHT22;6543;48.836;10.092;2024-02-04T07:20:03;6.90;99.90
12957;DHT22;6543;48.836;10.092;2024-02-04T07:22:31;6.80;99.90
12957;DHT22;6543;48.836;10.092;2024-02-04T07:24:59;7.10;99.90
12957;DHT22;6543;48.836;10.092;2024-02-04T07:27:26;7.20;99.90
12957;DHT22;6543;48.836;10.092;2024-02-04T07:29:53;7.10;99.90
12957;DHT22;6543;48.836;10.092;2024-02-04T07:32:20;6.90;99.90
12957;DHT22;6543;48.836;10.092;2024-02-04T07:34:50;6.90;99.90
12957;DHT22;6543;48.836;10.092;2024-02-04T07:37:17;6.90;99.90
12957;DHT22;6543;48.836;10.092;2024-02-04T07:39:44;6.90;99.90
12957;DHT22;6543;48.836;10.092;2024-02-04T07:42:10;6.90;99.90
12957;DHT22;6543;48.836;10.092;2024-02-04T07:44:37;7.00;99.90
12957;DHT22;6543;48.836;10.092;2024-02-04T07:47:04;7.00;99.90
12957;DHT22;6543;48.836;10.092;2024-02-04T07:49:31;7.10;99.90
12957;DHT22;6543;48.836;10.092;2024-02-04T07:51:59;7.10;99.90
12957;DHT22;6543;48.836;10.092;2024-02-04T07:54:26;7.10;99.90
12957;DHT22;6543;48.836;10.092;2024-02-04T07:56:52;7.10;99.90
12957;DHT22;6543;48.836;10.092;2024-02-04T07:59:19;7.20;99.90
12957;DHT22;6543;48.836;10.092;2024-02-04T08:01:46;7.20;99.90
12957;DHT22;6543;48.836;10.092;2024-02-04T08:04:13;7.20;99.90
12957;DHT22;6543;48.836;10.092;2024-02-04T08:06:40;7.20;99.90
12957;DHT22;6543;48.836;10.092;2024-02-04T08:09:08;7.10;99.90
12957;DHT22;6543;48.836;10.092;2024-02-04T08:11:35;7.10;99.90
12957;DHT22;6543;48.836;10.092;2024-02-04T08:14:02;7.30;99.90
12957;DHT22;6543;48.836;10.092;2024-02-04T08:16:29;7.70;99.90
12957;DHT22;6543;48.836;10.092;2024-02-04T08:18:55;7.30;99.90
12957;DHT22;6543;48.836;10.092;2024-02-04T08:21:22;7.40;99.90
12957;DHT22;6543;48.836;10.092;2024-02-04T08:23:49;8.00;99.90
12957;DHT22;6543;48.836;10.092;2024-02-04T08:26:17;7.30;99.90
12957;DHT22;6543;48.836;10.092;2024-02-04T08:28:44;7.40;99.90
12957;DHT22;6543;48.836;10.092;2024-02-04T08:31:10;7.40;99.90
12957;DHT22;6543;48.836;10.092;2024-02-04T08:33:37;7.90;99.90
12957;DHT22;6543;48.836;10.092;2024-02-04T08:36:05;7.60;99.90
12957;DHT22;6543;48.836;10.092;2024-02-04T08:38:32;7.70;99.90
12957;DHT22;6543;48.836;10.092;2024-02-04T08:40:59;7.60;99.90
12957;DHT22;6543;48.836;10.092;2024-02-04T08:43:27;7.70;99.90
12957;DHT22;6543;48.836;10.092;2024-02-04T08:45:54;7.80;99.90
12957;DHT22;6543;48.836;10.092;2024-02-04T08:48:20;7.70;99.90
12957;DHT22;6543;48.836;10.092;2024-02-04T08:50:47;7.80;99.90
12957;DHT22;6543;48.836;10.092;2024-02-04T08:53:14;7.90;99.90
12957;DHT22;6543;48.836;10.092;2024-02-04T08:55:41;8.00;99.90
12957;DHT22;6543;48.836;10.092;2024-02-04T08:58:07;7.90;99.90
12957;DHT22;6543;48.836;10.092;2024-02-04T09:00:36;8.00;99.90
12957;DHT22;6543;48.836;10.092;2024-02-04T09:03:03;7.80;99.90
12957;DHT22;6543;48.836;10.092;2024-02-04T09:05:30;7.80;99.90
12957;DHT22;6543;48.836;10.092;2024-02-04T09:07:56;7.80;99.90
12957;DHT22;6543;48.836;10.092;2024-02-04T09:10:23;7.80;99.90
12957;DHT22;6543;48.836;10.092;2024-02-04T09:12:50;7.90;99.90
12957;DHT22;6543;48.836;10.092;2024-02-04T09:15:17;7.80;99.90
12957;DHT22;6543;48.836;10.092;2024-02-04T09:17:45;7.80;99.90
12957;DHT22;6543;48.836;10.092;2024-02-04T09:20:12;7.90;99.90
12957;DHT22;6543;48.836;10.092;2024-02-04T09:22:40;8.00;99.90
12957;DHT22;6543;48.836;10.092;2024-02-04T09:25:07;7.90;99.90
12957;DHT22;6543;48.836;10.092;2024-02-04T09:27:34;7.90;99.90
12957;DHT22;6543;48.836;10.092;2024-02-04T09:30:02;8.00;99.90
12957;DHT22;6543;48.836;10.092;2024-02-04T09:32:29;8.00;99.90
12957;DHT22;6543;48.836;10.092;2024-02-04T09:34:57;8.60;99.90
12957;DHT22;6543;48.836;10.092;2024-02-04T09:37:24;8.00;99.90
12957;DHT22;6543;48.836;10.092;2024-02-04T09:39:51;9.20;99.90
12957;DHT22;6543;48.836;10.092;2024-02-04T09:42:20;8.00;99.90
12957;DHT22;6543;48.836;10.092;2024-02-04T09:44:47;7.90;99.90
12957;DHT22;6543;48.836;10.092;2024-02-04T09:47:15;7.90;99.90
12957;DHT22;6543;48.836;10.092;2024-02-04T09:49:42;8.00;99.90
12957;DHT22;6543;48.836;10.092;2024-02-04T09:52:10;8.10;99.90
12957;DHT22;6543;48.836;10.092;2024-02-04T09:54:42;8.10;99.90
12957;DHT22;6543;48.836;10.092;2024-02-04T09:57:10;8.30;99.90
12957;DHT22;6543;48.836;10.092;2024-02-04T09:59:37;8.20;99.90
12957;DHT22;6543;48.836;10.092;2024-02-04T10:02:05;8.40;99.90
12957;DHT22;6543;48.836;10.092;2024-02-04T10:04:32;8.30;99.90
12957;DHT22;6543;48.836;10.092;2024-02-04T10:07:00;8.70;99.90
12957;DHT22;6543;48.836;10.092;2024-02-04T10:09:28;8.40;99.90
12957;DHT22;6543;48.836;10.092;2024-02-04T10:11:56;8.50;99.90
12957;DHT22;6543;48.836;10.092;2024-02-04T10:14:23;8.40;99.90
12957;DHT22;6543;48.836;10.092;2024-02-04T10:16:50;8.50;99.90
12957;DHT22;6543;48.836;10.092;2024-02-04T10:19:16;8.50;99.90
12957;DHT22;6543;48.836;10.092;2024-02-04T10:21:43;8.60;99.90
12957;DHT22;6543;48.836;10.092;2024-02-04T10:24:10;8.80;99.90
12957;DHT22;6543;48.836;10.092;2024-02-04T10:26:38;8.90;99.90
12957;DHT22;6543;48.836;10.092;2024-02-04T10:29:08;8.80;99.90
12957;DHT22;6543;48.836;10.092;2024-02-04T10:31:35;8.80;99.90
12957;DHT22;6543;48.836;10.092;2024-02-04T10:34:02;8.90;99.90
12957;DHT22;6543;48.836;10.092;2024-02-04T10:36:30;9.00;99.90
12957;DHT22;6543;48.836;10.092;2024-02-04T10:38:58;8.90;99.90
12957;DHT22;6543;48.836;10.092;2024-02-04T10:41:25;8.90;99.90
12957;DHT22;6543;48.836;10.092;2024-02-04T10:43:54;9.00;99.90
12957;DHT22;6543;48.836;10.092;2024-02-04T10:46:23;9.00;99.90
12957;DHT22;6543;48.836;10.092;2024-02-04T10:48:55;9.20;99.90
12957;DHT22;6543;48.836;10.092;2024-02-04T10:51:26;9.30;99.90
12957;DHT22;6543;48.836;10.092;2024-02-04T10:53:55;9.30;99.90
12957;DHT22;6543;48.836;10.092;2024-02-04T10:56:26;9.20;99.90
12957;DHT22;6543;48.836;10.092;2024-02-04T10:58:58;9.30;99.90
12957;DHT22;6543;48.836;10.092;2024-02-04T11:01:26;9.60;99.90
12957;DHT22;6543;48.836;10.092;2024-02-04T11:03:53;9.40;99.90
12957;DHT22;6543;48.836;10.092;2024-02-04T11:06:21;9.40;99.90
12957;DHT22;6543;48.836;10.092;2024-02-04T11:08:48;9.50;99.90
12957;DHT22;6543;48.836;10.092;2024-02-04T11:11:16;9.60;99.90
12957;DHT22;6543;48.836;10.092;2024-02-04T11:13:45;9.50;99.90
12957;DHT22;6543;48.836;10.092;2024-02-04T11:16:20;9.70;99.90
12957;DHT22;6543;48.836;10.092;2024-02-04T11:19:08;9.50;99.90
12957;DHT22;6543;48.836;10.092;2024-02-04T11:21:50;9.40;99.90
12957;DHT22;6543;48.836;10.092;2024-02-04T11:24:33;9.40;99.90
12957;DHT22;6543;48.836;10.092;2024-02-04T11:27:07;9.40;99.90
12957;DHT22;6543;48.836;10.092;2024-02-04T11:29:34;9.40;99.90
12957;DHT22;6543;48.836;10.092;2024-02-04T11:32:04;9.50;99.90
12957;DHT22;6543;48.836;10.092;2024-02-04T11:34:32;9.50;99.90
12957;DHT22;6543;48.836;10.092;2024-02-04T11:37:00;9.60;99.90
12957;DHT22;6543;48.836;10.092;2024-02-04T11:39:26;9.50;99.90
12957;DHT22;6543;48.836;10.092;2024-02-04T11:41:53;9.30;99.90
12957;DHT22;6543;48.836;10.092;2024-02-04T11:44:20;9.20;99.90
12957;DHT22;6543;48.836;10.092;2024-02-04T11:46:47;9.20;99.90
12957;DHT22;6543;48.836;10.092;2024-02-04T11:49:16;9.40;99.90
12957;DHT22;6543;48.836;10.092;2024-02-04T11:51:45;9.40;99.90
12957;DHT22;6543;48.836;10.092;2024-02-04T11:54:14;9.50;99.90
12957;DHT22;6543;48.836;10.092;2024-02-04T11:56:42;10.70;99.90
12957;DHT22;6543;48.836;10.092;2024-02-04T11:59:10;9.40;99.90
12957;DHT22;6543;48.836;10.092;2024-02-04T12:01:38;9.40;99.90
12957;DHT22;6543;48.836;10.092;2024-02-04T12:04:12;9.30;99.90
12957;DHT22;6543;48.836;10.092;2024-02-04T12:06:42;9.30;99.90
12957;DHT22;6543;48.836;10.092;2024-02-04T12:09:09;9.30;99.90
12957;DHT22;6543;48.836;10.092;2024-02-04T12:11:37;9.10;99.90
12957;DHT22;6543;48.836;10.092;2024-02-04T12:14:04;9.40;99.90
12957;DHT22;6543;48.836;10.092;2024-02-04T12:16:32;9.30;99.90
12957;DHT22;6543;48.836;10.092;2024-02-04T12:19:00;9.30;99.90
12957;DHT22;6543;48.836;10.092;2024-02-04T12:21:29;9.40;99.90
12957;DHT22;6543;48.836;10.092;2024-02-04T12:23:57;9.30;99.90
12957;DHT22;6543;48.836;10.092;2024-02-04T12:26:25;9.20;99.90
12957;DHT22;6543;48.836;10.092;2024-02-04T12:28:51;9.30;99.90
12957;DHT22;6543;48.836;10.092;2024-02-04T12:31:19;9.20;99.90
12957;DHT22;6543;48.836;10.092;2024-02-04T12:33:53;9.20;99.90
12957;DHT22;6543;48.836;10.092;2024-02-04T12:36:23;9.00;99.90
12957;DHT22;6543;48.836;10.092;2024-02-04T12:38:52;9.30;99.90
12957;DHT22;6543;48.836;10.092;2024-02-04T12:41:21;9.40;99.90
12957;DHT22;6543;48.836;10.092;2024-02-04T12:43:53;9.30;99.90
12957;DHT22;6543;48.836;10.092;2024-02-04T12:46:20;9.20;99.90
12957;DHT22;6543;48.836;10.092;2024-02-04T12:48:51;9.30;99.90
12957;DHT22;6543;48.836;10.092;2024-02-04T12:51:25;9.60;99.90
12957;DHT22;6543;48.836;10.092;2024-02-04T12:54:05;9.70;99.90
12957;DHT22;6543;48.836;10.092;2024-02-04T12:56:44;9.90;99.90
12957;DHT22;6543;48.836;10.092;2024-02-04T12:59:11;9.80;99.90
12957;DHT22;6543;48.836;10.092;2024-02-04T13:01:38;9.90;99.90
12957;DHT22;6543;48.836;10.092;2024-02-04T13:04:05;9.90;99.90
12957;DHT22;6543;48.836;10.092;2024-02-04T13:06:37;10.00;99.90
12957;DHT22;6543;48.836;10.092;2024-02-04T13:09:04;9.90;99.90
12957;DHT22;6543;48.836;10.092;2024-02-04T13:11:33;10.00;99.90
12957;DHT22;6543;48.836;10.092;2024-02-04T13:14:01;10.20;99.90
12957;DHT22;6543;48.836;10.092;2024-02-04T13:16:28;9.90;99.90
12957;DHT22;6543;48.836;10.092;2024-02-04T13:18:55;10.10;99.90
12957;DHT22;6543;48.836;10.092;2024-02-04T13:21:22;10.00;99.90
12957;DHT22;6543;48.836;10.092;2024-02-04T13:23:50;10.00;99.90
12957;DHT22;6543;48.836;10.092;2024-02-04T13:26:17;9.90;99.90
12957;DHT22;6543;48.836;10.092;2024-02-04T13:28:43;9.90;99.90
12957;DHT22;6543;48.836;10.092;2024-02-04T13:31:12;10.10;99.90
12957;DHT22;6543;48.836;10.092;2024-02-04T13:33:39;9.90;99.90
12957;DHT22;6543;48.836;10.092;2024-02-04T13:36:07;9.90;99.90
12957;DHT22;6543;48.836;10.092;2024-02-04T13:38:34;9.90;99.90
12957;DHT22;6543;48.836;10.092;2024-02-04T13:41:01;9.90;99.90
12957;DHT22;6543;48.836;10.092;2024-02-04T13:43:29;9.90;99.90
12957;DHT22;6543;48.836;10.092;2024-02-04T13:45:56;9.90;99.90
12957;DHT22;6543;48.836;10.092;2024-02-04T13:48:24;9.80;99.90
12957;DHT22;6543;48.836;10.092;2024-02-04T13:50:51;9.90;99.90
12957;DHT22;6543;48.836;10.092;2024-02-04T13:53:19;9.80;99.90
12957;DHT22;6543;48.836;10.092;2024-02-04T13:55:46;9.80;99.90
12957;DHT22;6543;48.836;10.092;2024-02-04T13:58:13;9.70;99.90
12957;DHT22;6543;48.836;10.092;2024-02-04T14:00:40;9.70;99.90
12957;DHT22;6543;48.836;10.092;2024-02-04T14:03:07;9.70;99.90
12957;DHT22;6543;48.836;10.092;2024-02-04T14:05:36;11.40;99.90
12957;DHT22;6543;48.836;10.092;2024-02-04T14:08:03;9.70;99.90
12957;DHT22;6543;48.836;10.092;2024-02-04T14:10:31;9.70;99.90
12957;DHT22;6543;48.836;10.092;2024-02-04T14:12:58;9.80;99.90
12957;DHT22;6543;48.836;10.092;2024-02-04T14:15:24;9.90;99.90
12957;DHT22;6543;48.836;10.092;2024-02-04T14:17:51;9.90;99.90
12957;DHT22;6543;48.836;10.092;2024-02-04T14:20:19;9.90;99.90
12957;DHT22;6543;48.836;10.092;2024-02-04T14:22:48;9.90;99.90
12957;DHT22;6543;48.836;10.092;2024-02-04T14:25:16;9.90;99.90
12957;DHT22;6543;48.836;10.092;2024-02-04T14:27:43;9.90;99.90
12957;DHT22;6543;48.836;10.092;2024-02-04T14:30:10;10.00;99.90
12957;DHT22;6543;48.836;10.092;2024-02-04T14:32:37;10.10;99.90
12957;DHT22;6543;48.836;10.092;2024-02-04T14:35:04;10.10;99.90
12957;DHT22;6543;48.836;10.092;2024-02-04T14:37:34;10.00;99.90
12957;DHT22;6543;48.836;10.092;2024-02-04T14:40:03;10.10;99.90
12957;DHT22;6543;48.836;10.092;2024-02-04T14:42:32;10.00;99.90
12957;DHT22;6543;48.836;10.092;2024-02-04T14:44:59;10.10;99.90
12957;DHT22;6543;48.836;10.092;2024-02-04T14:47:26;10.10;99.90
12957;DHT22;6543;48.836;10.092;2024-02-04T14:49:53;10.20;99.90
12957;DHT22;6543;48.836;10.092;2024-02-04T14:52:20;10.10;99.90
12957;DHT22;6543;48.836;10.092;2024-02-04T14:54:47;10.20;99.90
12957;DHT22;6543;48.836;10.092;2024-02-04T14:57:15;10.30;99.90
12957;DHT22;6543;48.836;10.092;2024-02-04T14:59:42;10.30;99.90
12957;DHT22;6543;48.836;10.092;2024-02-04T15:02:09;10.30;99.90
12957;DHT22;6543;48.836;10.092;2024-02-04T15:04:36;10.20;99.90
12957;DHT22;6543;48.836;10.092;2024-02-04T15:07:03;10.30;99.90
12957;DHT22;6543;48.836;10.092;2024-02-04T15:09:31;10.30;99.90
12957;DHT22;6543;48.836;10.092;2024-02-04T15:11:58;10.60;99.90
12957;DHT22;6543;48.836;10.092;2024-02-04T15:14:28;10.20;99.90
12957;DHT22;6543;48.836;10.092;2024-02-04T15:16:55;10.10;99.90
12957;DHT22;6543;48.836;10.092;2024-02-04T15:19:23;10.20;99.90
12957;DHT22;6543;48.836;10.092;2024-02-04T15:21:51;10.10;99.90
12957;DHT22;6543;48.836;10.092;2024-02-04T15:24:18;10.20;99.90
12957;DHT22;6543;48.836;10.092;2024-02-04T15:26:48;10.10;99.90
12957;DHT22;6543;48.836;10.092;2024-02-04T15:29:15;10.10;99.90
12957;DHT22;6543;48.836;10.092;2024-02-04T15:31:45;10.00;99.90
12957;DHT22;6543;48.836;10.092;2024-02-04T15:34:14;10.00;99.90
12957;DHT22;6543;48.836;10.092;2024-02-04T15:36:41;10.00;99.90
12957;DHT22;6543;48.836;10.092;2024-02-04T15:39:08;10.00;99.90
12957;DHT22;6543;48.836;10.092;2024-02-04T15:41:37;9.90;99.90
12957;DHT22;6543;48.836;10.092;2024-02-04T15:44:04;9.90;99.90
12957;DHT22;6543;48.836;10.092;2024-02-04T15:46:32;9.80;99.90